Time;durP1;ratioP1;P1;durP2;ratioP2;P2;SDS_P1;SDS_P2;PMS_P1;PMS_P2;Temp;Humidity;BMP_temperature;BMP_pressure;BME280_temperature;BME280_humidity;BME280_pressure;Samples;Min_cycle;Max_cycle;Signal;HPM_P1;HPM_P2
2024/01/24 00:02:16;;;;;;;21.58;5.40;;;10.70;99.90;;;10.35;100.00;100430.91;4999100;28;20051;-79
2024/01/24 00:04:48;;;;;;;21.00;5.47;;;10.70;99.90;;;10.39;100.00;100407.28;5018324;28;20129;-79
2024/01/24 00:07:16;;;;;;;23.83;5.68;;;10.70;99.90;;;10.40;100.00;100425.75;5002794;28;20050;-80
2024/01/24 00:09:43;;;;;;;18.42;5.85;;;10.70;99.90;;;10.42;100.00;100415.69;4982421;28;20054;-80
2024/01/24 00:12:11;;;;;;;19.48;5.53;;;10.80;99.90;;;10.46;100.00;100408.09;5000090;28;20050;-80
2024/01/24 00:14:38;;;;;;;22.17;5.50;;;10.80;99.90;;;10.48;100.00;100414.81;5001030;28;20418;-80
2024/01/24 00:17:06;;;;;;;15.32;4.95;;;10.90;99.90;;;10.52;100.00;100404.56;5012169;28;20490;-80
2024/01/24 00:19:33;;;;;;;13.15;4.95;;;10.90;99.90;;;10.54;100.00;100389.16;5020154;28;20042;-79
2024/01/24 00:22:03;;;;;;;15.18;5.22;;;10.90;99.90;;;10.56;100.00;100385.25;5019879;28;20042;-80
2024/01/24 00:24:30;;;;;;;17.98;5.22;;;10.90;99.90;;;10.56;100.00;100377.25;5001804;28;20140;-80
2024/01/24 00:26:58;;;;;;;13.05;4.70;;;10.90;99.90;;;10.57;100.00;100367.41;5002582;28;20464;-79
2024/01/24 00:29:25;;;;;;;18.10;4.90;;;10.90;99.90;;;10.64;100.00;100360.22;5018913;28;20034;-79
2024/01/24 00:31:56;;;;;;;19.25;5.25;;;11.00;99.90;;;10.71;100.00;100370.81;5002131;28;20041;-79
2024/01/24 00:34:24;;;;;;;19.23;4.95;;;11.10;99.90;;;10.71;100.00;100362.81;5019612;28;20045;-80
2024/01/24 00:36:51;;;;;;;20.77;5.20;;;11.10;99.90;;;10.71;100.00;100344.16;5017476;28;20104;-80
2024/01/24 00:39:20;;;;;;;20.83;5.50;;;11.10;99.90;;;10.74;100.00;100335.72;5001070;28;20129;-80
2024/01/24 00:41:48;;;;;;;12.05;4.53;;;11.10;99.90;;;10.76;100.00;100326.47;5001974;28;20078;-80
2024/01/24 00:44:16;;;;;;;14.10;3.97;;;11.10;99.90;;;10.80;100.00;100332.19;5001962;28;20050;-80
2024/01/24 00:46:43;;;;;;;15.40;4.40;;;11.20;99.90;;;10.80;100.00;100348.19;4986147;28;20109;-80
2024/01/24 00:49:13;;;;;;;16.48;4.55;;;11.20;99.90;;;10.86;100.00;100357.19;5001441;28;20050;-79
2024/01/24 00:51:41;;;;;;;12.70;4.70;;;11.20;99.90;;;10.88;99.58;100355.09;5019935;28;20049;-79
2024/01/24 00:54:10;;;;;;;13.55;4.32;;;11.30;99.90;;;10.91;99.47;100357.34;5019233;28;20046;-79
2024/01/24 00:56:40;;;;;;;11.15;4.22;;;11.30;99.90;;;10.94;99.27;100362.28;5019754;28;20046;-79
2024/01/24 00:59:07;;;;;;;15.70;4.35;;;11.30;99.90;;;10.97;99.20;100332.47;4969536;28;20060;-79
2024/01/24 01:01:35;;;;;;;17.75;4.80;;;11.30;99.90;;;11.00;98.99;100340.06;5002050;28;20061;-79
2024/01/24 01:04:03;;;;;;;14.15;4.15;;;11.40;99.90;;;10.99;98.62;100344.56;4968940;28;20054;-79
2024/01/24 01:06:32;;;;;;;13.90;4.25;;;11.30;99.90;;;10.98;98.59;100334.94;5001243;28;20105;-79
2024/01/24 01:09:02;;;;;;;11.88;4.00;;;11.30;99.90;;;10.98;98.53;100337.59;5001343;28;20096;-79
2024/01/24 01:11:30;;;;;;;12.80;4.70;;;11.30;99.90;;;11.02;98.83;100340.63;5019212;28;20046;-79
2024/01/24 01:13:59;;;;;;;14.50;4.30;;;11.30;99.90;;;11.08;98.66;100323.78;5017655;28;20042;-79
2024/01/24 01:16:26;;;;;;;9.55;3.95;;;11.40;99.90;;;11.09;98.25;100326.22;5018233;28;20129;-80
2024/01/24 01:18:54;;;;;;;13.13;4.20;;;11.50;99.90;;;11.15;97.83;100345.06;5001189;28;20058;-79
2024/01/24 01:21:21;;;;;;;11.77;4.40;;;11.50;99.90;;;11.14;97.26;100354.13;4985239;28;20589;-79
2024/01/24 01:23:49;;;;;;;10.27;3.50;;;11.50;99.90;;;11.18;97.12;100329.44;5017750;28;20096;-79
2024/01/24 01:26:16;;;;;;;9.88;3.40;;;11.50;99.90;;;11.21;96.63;100323.66;5019123;28;20045;-79
2024/01/24 01:28:47;;;;;;;13.50;3.83;;;11.60;99.90;;;11.23;96.34;100342.94;5000554;28;20049;-79
2024/01/24 01:31:16;;;;;;;10.70;3.90;;;11.60;99.90;;;11.26;95.77;100326.47;5001347;28;20073;-79
2024/01/24 01:33:43;;;;;;;10.93;3.65;;;11.60;99.90;;;11.25;95.62;100330.19;4984854;28;20038;-79
2024/01/24 01:36:11;;;;;;;11.88;3.38;;;11.60;99.90;;;11.28;95.24;100329.75;5018848;28;20073;-79
2024/01/24 01:38:38;;;;;;;12.10;3.72;;;11.60;99.90;;;11.29;95.00;100341.25;5001246;28;20041;-79
2024/01/24 01:41:06;;;;;;;7.00;3.03;;;11.60;99.90;;;11.32;94.72;100346.13;5000365;28;20050;-79
2024/01/24 01:43:36;;;;;;;9.18;3.25;;;11.70;99.90;;;11.35;94.30;100333.16;4984379;28;20038;-79
2024/01/24 01:46:11;;;;;;;11.93;3.10;;;11.70;99.90;;;11.35;94.01;100329.69;5000747;28;20046;-79
2024/01/24 01:48:40;;;;;;;7.78;2.72;;;11.70;99.90;;;11.34;93.60;100331.53;5018648;28;20124;-79
2024/01/24 01:51:08;;;;;;;7.50;2.50;;;11.70;99.90;;;11.39;93.51;100346.09;5000962;28;20033;-82
2024/01/24 01:53:38;;;;;;;8.55;2.90;;;11.70;99.90;;;11.40;93.58;100321.84;5018005;28;20531;-80
2024/01/24 01:56:09;;;;;;;8.93;2.80;;;11.70;99.90;;;11.40;93.10;100318.34;5001374;28;20042;-79
2024/01/24 01:58:37;;;;;;;;;;;11.70;99.90;;;11.44;92.81;100316.88;5000973;28;20050;-80
2024/01/24 02:01:06;;;;;;;8.52;3.00;;;11.80;99.90;;;11.49;92.71;100333.06;5000479;28;19921;-80
2024/01/24 02:03:40;;;;;;;9.23;2.78;;;11.80;99.90;;;11.49;93.23;100320.50;5017159;28;20042;-80
2024/01/24 02:06:08;;;;;;;9.80;2.80;;;11.90;99.90;;;11.48;93.80;100299.38;5017900;28;20188;-80
2024/01/24 02:08:36;;;;;;;7.25;2.35;;;11.80;99.90;;;11.49;93.60;100325.84;5017592;28;20418;-80
2024/01/24 02:11:05;;;;;;;7.80;3.00;;;11.80;99.90;;;11.47;94.04;100330.63;5018245;28;20513;-79
2024/01/24 02:13:33;;;;;;;10.18;2.40;;;11.80;99.90;;;11.50;93.43;100326.66;4984073;28;20040;-80
2024/01/24 02:16:00;;;;;;;7.03;2.58;;;11.90;99.90;;;11.55;92.81;100308.13;5000455;28;20398;-79
2024/01/24 02:18:28;;;;;;;8.27;2.20;;;11.90;99.90;;;11.54;92.67;100317.19;5000524;28;20072;-80
2024/01/24 02:20:57;;;;;;;6.13;2.08;;;11.90;99.90;;;11.57;92.20;100312.22;4983608;28;20046;-80
2024/01/24 02:23:26;;;;;;;5.90;2.05;;;12.00;99.90;;;11.57;92.08;100320.25;5017427;28;20105;-80
2024/01/24 02:25:55;;;;;;;6.85;2.25;;;11.90;99.90;;;11.57;91.88;100311.41;5017143;28;20096;-80
2024/01/24 02:28:23;;;;;;;8.05;2.00;;;12.00;99.90;;;11.58;91.78;100308.50;5016117;28;20128;-80
2024/01/24 02:30:50;;;;;;;6.22;1.55;;;11.90;99.90;;;11.62;91.40;100316.09;5018246;28;20098;-80
2024/01/24 02:33:17;;;;;;;8.13;1.90;;;11.90;99.90;;;11.66;90.77;100299.38;4999859;28;20058;-80
2024/01/24 02:35:45;;;;;;;5.40;1.45;;;12.00;99.90;;;11.71;89.94;100282.66;5000123;28;20125;-80
2024/01/24 02:38:13;;;;;;;4.03;1.55;;;12.10;99.90;;;11.78;89.43;100281.56;4999739;28;20073;-80
2024/01/24 02:40:40;;;;;;;3.88;1.55;;;12.20;99.90;;;11.77;89.36;100279.13;4983684;28;20490;-80
2024/01/24 02:43:10;;;;;;;3.33;1.40;;;12.20;99.90;;;11.76;89.31;100259.63;5000148;28;20073;-80
2024/01/24 02:45:37;;;;;;;6.90;2.00;;;12.10;99.90;;;11.78;89.13;100249.50;5017106;28;20034;-80
2024/01/24 02:48:06;;;;;;;5.20;1.80;;;12.20;99.90;;;11.84;89.13;100274.53;5015551;28;20077;-80
2024/01/24 02:50:34;;;;;;;3.88;1.33;;;12.20;99.90;;;11.87;88.85;100267.94;4983767;28;20054;-80
2024/01/24 02:53:06;;;;;;;5.22;1.30;;;12.20;99.90;;;11.86;88.99;100267.13;5018079;28;20045;-80
2024/01/24 02:55:33;;;;;;;5.57;1.40;;;12.20;99.90;;;11.88;88.81;100269.56;5021550;28;20044;-80
2024/01/24 02:58:02;;;;;;;3.25;1.23;;;12.20;99.90;;;11.90;88.40;100265.63;5021250;28;20045;-80
2024/01/24 03:00:31;;;;;;;4.00;1.42;;;12.30;99.90;;;11.90;88.36;100246.09;5021071;28;20037;-80
2024/01/24 03:02:58;;;;;;;4.20;1.50;;;12.20;99.90;;;11.90;88.11;100259.47;5003344;28;20060;-80
2024/01/24 03:05:26;;;;;;;3.30;1.48;;;12.20;99.90;;;11.93;88.04;100245.66;4986625;28;20053;-80
2024/01/24 03:07:53;;;;;;;5.40;1.42;;;12.30;99.90;;;11.92;87.92;100252.06;5020874;28;20460;-80
2024/01/24 03:10:22;;;;;;;2.50;1.25;;;12.30;99.90;;;11.97;87.73;100209.44;5021038;28;20042;-80
2024/01/24 03:12:50;;;;;;;5.40;1.50;;;12.30;99.90;;;12.01;87.43;100237.34;5003088;28;20100;-80
2024/01/24 03:15:17;;;;;;;4.00;1.20;;;12.40;99.90;;;11.99;87.63;100226.84;5002454;28;20043;-79
2024/01/24 03:17:46;;;;;;;2.38;1.10;;;12.40;99.90;;;12.02;87.54;100260.34;5002623;28;20042;-80
2024/01/24 03:20:14;;;;;;;2.80;1.00;;;12.40;99.90;;;12.02;87.55;100255.00;5001987;28;20112;-80
2024/01/24 03:22:42;;;;;;;5.53;1.20;;;12.40;99.90;;;12.01;87.77;100210.63;5002034;28;20042;-80
2024/01/24 03:25:12;;;;;;;2.35;1.15;;;12.40;99.90;;;12.00;87.83;100222.31;5001886;28;20041;-80
2024/01/24 03:27:40;;;;;;;2.17;1.00;;;12.40;99.90;;;12.00;88.17;100225.00;5002752;28;20046;-80
2024/01/24 03:30:10;;;;;;;4.25;1.08;;;12.40;99.90;;;11.97;88.30;100218.25;5019737;28;20128;-81
2024/01/24 03:32:37;;;;;;;4.68;1.20;;;12.40;99.90;;;11.99;88.57;100218.03;5019934;28;20041;-80
2024/01/24 03:35:09;;;;;;;3.72;1.17;;;12.30;99.90;;;12.03;88.28;100235.25;5002359;28;20501;-81
2024/01/24 03:37:37;;;;;;;5.03;1.20;;;12.40;99.90;;;12.03;88.33;100221.88;5019132;28;20069;-80
2024/01/24 03:40:06;;;;;;;2.65;1.00;;;12.40;99.90;;;12.05;88.35;100236.66;5018941;28;20076;-80
2024/01/24 03:42:34;;;;;;;2.60;1.13;;;12.40;99.90;;;12.03;88.82;100253.94;5019356;28;20046;-80
2024/01/24 03:45:01;;;;;;;2.90;1.15;;;12.40;99.90;;;12.03;88.97;100228.03;5001488;28;20046;-80
2024/01/24 03:47:28;;;;;;;2.90;1.05;;;12.40;99.90;;;12.02;89.13;100261.16;5001713;28;20111;-80
2024/01/24 03:49:56;;;;;;;2.63;1.10;;;12.40;99.90;;;12.03;90.02;100273.47;4984743;28;20140;-80
2024/01/24 03:52:26;;;;;;;3.63;1.08;;;12.50;99.90;;;11.96;92.59;100280.78;5019336;28;20141;-81
2024/01/24 03:54:53;;;;;;;4.13;1.20;;;12.40;99.90;;;11.89;94.96;100280.03;5002001;28;20136;-80
2024/01/24 03:57:21;;;;;;;2.83;1.20;;;12.30;99.90;;;11.83;94.96;100287.09;5002523;28;20033;-80
2024/01/24 03:59:48;;;;;;;3.20;1.25;;;12.20;99.90;;;11.77;96.65;100282.63;5019862;28;20421;-81
2024/01/24 04:02:16;;;;;;;3.30;1.20;;;12.20;99.90;;;11.70;97.73;100284.53;5002965;28;20042;-80
2024/01/24 04:04:43;;;;;;;2.85;1.10;;;12.10;99.90;;;11.67;98.34;100303.69;5020030;28;20108;-81
2024/01/24 04:07:11;;;;;;;3.05;0.98;;;12.10;99.90;;;11.69;98.39;100344.34;5001714;28;20045;-80
2024/01/24 04:09:40;;;;;;;2.63;1.17;;;12.10;99.90;;;11.67;98.81;100309.03;5018748;28;20042;-81
2024/01/24 04:12:09;;;;;;;2.58;1.10;;;12.00;99.90;;;11.64;99.34;100328.16;5001847;28;20065;-80
2024/01/24 04:14:36;;;;;;;3.08;1.20;;;12.00;99.90;;;11.64;99.96;100330.03;5019778;28;20050;-81
2024/01/24 04:17:04;;;;;;;4.15;1.30;;;12.00;99.90;;;11.61;100.00;100339.28;5018495;28;20161;-80
2024/01/24 04:19:31;;;;;;;6.00;1.60;;;12.00;99.90;;;11.58;100.00;100331.72;5019969;28;20038;-81
2024/01/24 04:21:59;;;;;;;3.42;2.00;;;11.90;99.90;;;11.57;99.05;100343.47;5018827;28;20065;-81
2024/01/24 04:24:26;;;;;;;4.38;2.38;;;11.90;99.90;;;11.58;99.18;100350.44;5018575;28;20041;-80
2024/01/24 04:26:57;;;;;;;5.22;2.97;;;11.90;99.90;;;11.58;99.26;100347.75;5019477;28;20484;-80
2024/01/24 04:29:24;;;;;;;4.97;3.28;;;11.90;99.90;;;11.56;99.50;100349.81;4986392;28;20053;-80
2024/01/24 04:31:52;;;;;;;5.93;2.45;;;11.90;99.90;;;11.56;99.05;100336.47;5001410;28;20042;-80
2024/01/24 04:34:24;;;;;;;7.88;2.47;;;11.90;99.90;;;11.51;97.89;100296.25;5001265;28;20048;-81
2024/01/24 04:37:00;;;;;;;5.53;1.90;;;11.80;99.90;;;11.50;96.79;100316.00;5017930;28;20046;-81
2024/01/24 04:39:36;;;;;;;5.05;1.67;;;11.90;99.90;;;11.50;96.27;100334.69;5019176;28;20050;-81
2024/01/24 04:42:06;;;;;;;3.63;1.73;;;11.90;99.90;;;11.50;95.87;100314.13;5018944;28;20049;-80
2024/01/24 04:44:37;;;;;;;4.00;1.80;;;11.90;99.90;;;11.52;95.37;100328.09;5018786;28;20526;-80
2024/01/24 04:47:06;;;;;;;3.90;1.52;;;11.90;99.90;;;11.50;94.77;100327.47;5017191;28;20072;-80
2024/01/24 04:49:34;;;;;;;2.90;1.33;;;11.90;99.90;;;11.50;93.82;100332.81;5016555;28;20046;-80
2024/01/24 04:52:02;;;;;;;3.35;1.55;;;11.90;99.90;;;11.49;93.42;100339.22;5000778;28;20137;-80
2024/01/24 04:54:33;;;;;;;4.97;1.30;;;11.80;99.90;;;11.49;91.00;100352.56;5017977;28;20136;-81
2024/01/24 04:57:01;;;;;;;4.35;1.20;;;11.80;99.90;;;11.51;90.27;100344.31;5018608;28;20112;-80
2024/01/24 04:59:30;;;;;;;6.95;1.00;;;11.80;99.90;;;11.44;88.32;100328.38;5017521;28;20061;-81
2024/01/24 05:01:58;;;;;;;2.92;0.88;;;11.80;99.90;;;11.46;87.75;100336.16;5019381;28;20065;-80
2024/01/24 05:04:26;;;;;;;3.70;1.00;;;11.80;99.90;;;11.47;86.88;100362.66;4986141;28;20052;-80
2024/01/24 05:06:53;;;;;;;5.47;0.93;;;11.80;99.90;;;11.47;87.48;100367.19;5018767;28;20037;-80
2024/01/24 05:09:23;;;;;;;5.68;0.95;;;11.80;99.90;;;11.44;87.30;100371.09;5019099;28;20060;-81
2024/01/24 05:11:53;;;;;;;6.10;0.93;;;11.70;99.90;;;11.48;87.79;100355.47;5018974;28;20050;-81
2024/01/24 05:14:21;;;;;;;5.57;1.05;;;11.80;99.90;;;11.48;88.26;100371.50;5001359;28;20092;-81
2024/01/24 05:16:50;;;;;;;3.80;0.85;;;11.80;99.90;;;11.49;89.01;100394.47;4999841;28;20405;-84
2024/01/24 05:19:18;;;;;;;7.43;1.60;;;11.80;99.90;;;11.48;88.79;100368.81;4984306;28;20058;-84
2024/01/24 05:21:45;;;;;;;7.05;1.35;;;11.80;99.90;;;11.48;88.29;100360.81;5018621;28;20092;-84
2024/01/24 05:24:13;;;;;;;7.20;1.70;;;11.80;99.90;;;11.44;86.20;100371.09;5018161;28;20046;-85
2024/01/24 05:26:42;;;;;;;11.30;2.10;;;11.80;99.90;;;11.45;84.85;100371.91;5000331;28;20097;-86
2024/01/24 05:29:09;;;;;;;10.52;2.28;;;11.80;99.90;;;11.43;84.51;100366.81;5018474;28;20073;-86
2024/01/24 05:31:38;;;;;;;14.15;2.55;;;11.80;99.90;;;11.40;82.82;100367.22;4969119;28;20042;-86
2024/01/24 05:34:08;;;;;;;14.43;2.58;;;11.70;99.90;;;11.39;82.48;100370.94;5001361;28;20080;-86
2024/01/24 05:36:35;;;;;;;12.63;2.88;;;11.70;99.90;;;11.35;81.43;100381.22;5000951;28;20057;-85
2024/01/24 05:39:06;;;;;;;14.82;2.67;;;11.70;99.90;;;11.35;81.11;100388.44;5019412;28;20096;-85
2024/01/24 05:41:35;;;;;;;14.20;2.33;;;11.70;99.90;;;11.31;80.68;100401.38;5001907;28;20524;-85
2024/01/24 05:44:02;;;;;;;13.88;2.45;;;11.60;99.90;;;11.27;80.27;100402.88;5000811;28;20080;-84
2024/01/24 05:46:31;;;;;;;15.45;3.60;;;11.60;99.90;;;11.27;80.68;100426.06;4999656;28;20054;-83
2024/01/24 05:49:00;;;;;;;19.40;2.60;;;11.60;99.90;;;11.25;80.39;100453.00;5017686;28;20100;-85
2024/01/24 05:51:29;;;;;;;12.10;2.40;;;11.60;99.90;;;11.29;80.39;100432.03;5017991;28;20042;-84
2024/01/24 05:53:57;;;;;;;17.50;3.25;;;11.60;99.90;;;11.29;79.58;100437.38;5016579;28;20057;-85
2024/01/24 05:56:23;;;;;;;16.30;3.38;;;11.60;99.90;;;11.31;78.77;100417.41;5017535;28;20124;-83
2024/01/24 05:58:50;;;;;;;14.48;3.08;;;11.70;99.90;;;11.31;78.64;100441.44;5017997;28;20049;-83
2024/01/24 06:01:18;;;;;;;20.70;3.55;;;11.70;99.90;;;11.33;78.85;100430.56;5018374;28;20041;-83
2024/01/24 06:03:45;;;;;;;23.45;3.67;;;11.70;99.90;;;11.31;78.53;100428.09;5001587;28;20050;-83
2024/01/24 06:06:13;;;;;;;15.80;2.70;;;11.60;99.90;;;11.31;78.39;100435.28;4969895;28;20484;-79
2024/01/24 06:08:43;;;;;;;15.77;3.00;;;11.70;99.90;;;11.31;77.47;100446.78;5021608;28;20050;-80
2024/01/24 06:11:14;;;;;;;19.30;4.22;;;11.70;99.90;;;11.34;77.54;100456.22;5021166;28;20425;-79
2024/01/24 06:13:41;;;;;;;23.15;3.70;;;11.70;99.90;;;11.33;78.05;100454.59;5020800;28;20050;-80
2024/01/24 06:16:09;;;;;;;18.20;3.92;;;11.70;99.90;;;11.34;77.57;100451.69;5002926;28;20048;-80
2024/01/24 06:18:36;;;;;;;18.00;3.55;;;11.60;99.90;;;11.33;76.66;100444.72;5019315;28;20042;-79
2024/01/24 06:21:04;;;;;;;16.23;3.63;;;11.70;99.90;;;11.34;76.91;100448.22;5018688;28;20069;-79
2024/01/24 06:23:32;;;;;;;22.90;4.05;;;11.70;99.90;;;11.33;75.76;100446.59;5020705;28;20100;-79
2024/01/24 06:26:03;;;;;;;18.77;3.70;;;11.60;99.90;;;11.36;75.89;100462.16;5003524;28;20100;-79
2024/01/24 06:28:31;;;;;;;17.77;3.08;;;11.70;99.90;;;11.35;74.83;100464.00;5022341;28;20046;-79
2024/01/24 06:31:00;;;;;;;21.95;4.20;;;11.70;99.90;;;11.37;74.64;100497.69;4989073;28;20556;-84
2024/01/24 06:33:27;;;;;;;22.55;4.22;;;11.70;99.90;;;11.35;74.84;100487.22;5025543;28;20085;-85
2024/01/24 06:35:55;;;;;;;20.63;4.13;;;11.70;99.90;;;11.35;74.48;100503.25;5003779;28;20104;-89
2024/01/24 06:38:23;;;;;;;20.67;3.65;;;11.70;99.90;;;11.34;74.49;100477.59;5018417;28;20463;-89
2024/01/24 06:40:51;;;;;;;24.60;4.30;;;11.70;99.90;;;11.31;73.46;100465.47;5001094;28;20054;-89
2024/01/24 06:43:20;;;;;;;22.67;3.78;;;11.70;99.90;;;11.34;74.07;100493.59;5017411;28;20576;-89
2024/01/24 06:45:48;;;;;;;22.88;4.30;;;11.70;99.90;;;11.31;74.33;100499.38;4999934;28;20046;-89
2024/01/24 06:48:15;;;;;;;20.48;3.92;;;11.60;99.90;;;11.32;74.49;100503.66;5017522;28;20594;-90
2024/01/24 06:50:43;;;;;;;23.52;3.55;;;11.60;99.90;;;11.32;75.45;100533.03;5017220;28;20057;-87
2024/01/24 06:53:14;;;;;;;24.67;4.53;;;11.60;99.90;;;11.28;76.08;100547.88;4966971;28;20053;-89
2024/01/24 06:55:44;;;;;;;21.35;4.45;;;11.60;99.90;;;11.26;76.42;100542.72;5016172;28;20050;-91
2024/01/24 06:58:11;;;;;;;21.67;3.88;;;11.60;99.90;;;11.22;75.75;100525.50;4999825;28;20050;-90
2024/01/24 07:00:40;;;;;;;26.63;4.22;;;11.50;99.90;;;11.24;75.95;100517.28;5018151;28;20056;-87
2024/01/24 07:03:07;;;;;;;23.65;3.70;;;11.50;99.90;;;11.21;75.27;100521.19;5004403;28;20136;-86
2024/01/24 07:05:35;;;;;;;20.52;4.00;;;11.50;99.90;;;11.19;74.10;100531.28;5003968;28;20053;-84
2024/01/24 07:08:03;;;;;;;27.67;4.32;;;11.50;99.90;;;11.21;73.01;100534.53;4986353;28;20045;-82
2024/01/24 07:10:30;;;;;;;24.27;4.28;;;11.50;99.90;;;11.22;72.71;100543.34;5010776;28;20099;-82
2024/01/24 07:12:58;;;;;;;32.58;6.22;;;11.60;99.90;;;11.21;72.41;100542.53;5009298;28;20045;-82
2024/01/24 07:15:26;;;;;;;19.48;3.80;;;11.60;99.90;;;11.24;72.71;100544.78;5038299;28;20556;-82
2024/01/24 07:17:55;;;;;;;26.48;5.72;;;11.60;99.90;;;11.23;73.07;100564.53;5026748;28;20037;-82
2024/01/24 07:20:23;;;;;;;26.98;4.93;;;11.60;99.90;;;11.24;73.00;100594.72;5021267;28;20060;-82
2024/01/24 07:22:51;;;;;;;28.52;5.18;;;11.60;99.90;;;11.24;73.35;100597.38;5009436;28;20049;-82
2024/01/24 07:25:20;;;;;;;24.52;5.22;;;11.50;99.90;;;11.22;72.71;100602.91;5031394;28;20120;-82
2024/01/24 07:27:48;;;;;;;27.70;4.78;;;11.60;99.90;;;11.21;72.71;100560.41;5038595;28;20050;-82
2024/01/24 07:30:16;;;;;;;26.75;5.07;;;11.60;99.90;;;11.19;72.48;100575.84;4955636;28;20132;-82
2024/01/24 07:32:44;;;;;;;30.40;5.32;;;11.50;99.90;;;11.20;72.00;100594.31;5021319;28;20050;-82
2024/01/24 07:35:13;;;;;;;29.63;5.35;;;11.50;99.90;;;11.18;72.14;100604.38;5007363;28;20053;-82
2024/01/24 07:37:40;;;;;;;28.50;5.10;;;11.60;99.90;;;11.13;71.69;100580.19;5038364;28;20037;-82
2024/01/24 07:40:10;;;;;;;33.13;6.05;;;11.50;99.90;;;11.17;70.43;100605.41;5015888;28;20040;-82
2024/01/24 07:42:38;;;;;;;32.85;5.20;;;11.50;99.90;;;11.18;69.86;100607.06;5032862;28;20096;-82
2024/01/24 07:45:08;;;;;;;34.63;5.97;;;11.50;99.90;;;11.15;67.78;100623.47;5036186;28;20520;-82
2024/01/24 07:47:36;;;;;;;34.95;5.95;;;11.50;99.90;;;11.16;67.95;100624.31;5024107;28;20046;-82
2024/01/24 07:50:05;;;;;;;33.22;5.95;;;11.50;99.90;;;11.15;67.67;100634.16;4965633;28;20043;-82
2024/01/24 07:52:34;;;;;;;36.17;6.00;;;11.50;99.90;;;11.12;66.83;100634.56;5013230;28;20046;-82
2024/01/24 07:55:01;;;;;;;32.17;6.03;;;11.40;99.90;;;11.08;69.26;100636.03;5001247;28;20046;-82
2024/01/24 07:57:29;;;;;;;31.70;6.00;;;11.40;99.90;;;10.91;70.31;100651.69;5011564;28;20492;-82
2024/01/24 07:59:57;;;;;;;33.97;5.63;;;11.30;99.90;;;10.91;71.15;100669.53;5003976;28;20069;-82
2024/01/24 08:02:24;;;;;;;34.83;6.10;;;11.20;99.90;;;10.81;71.62;100670.78;4991620;28;20070;-82
2024/01/24 08:04:52;;;;;;;34.85;5.85;;;11.10;99.90;;;10.80;71.93;100673.66;5010633;28;20130;-81
2024/01/24 08:07:20;;;;;;;33.45;6.70;;;11.10;99.90;;;10.72;71.01;100666.69;4987121;28;20073;-82
2024/01/24 08:09:49;;;;;;;33.67;6.30;;;11.10;99.90;;;10.70;69.93;100686.63;4965066;28;20065;-82
2024/01/24 08:12:16;;;;;;;32.13;5.72;;;11.00;99.90;;;10.76;70.03;100689.25;4981580;28;20124;-82
2024/01/24 08:14:44;;;;;;;32.50;5.47;;;11.10;99.90;;;10.78;69.23;100705.06;4977252;28;20600;-81
2024/01/24 08:17:11;;;;;;;32.55;6.05;;;11.00;99.90;;;10.82;68.92;100720.44;5017566;28;20038;-81
2024/01/24 08:19:40;;;;;;;30.40;5.75;;;11.10;99.90;;;10.81;68.92;100709.97;5017048;28;20046;-82
2024/01/24 08:22:07;;;;;;;33.28;5.75;;;11.10;99.90;;;10.79;68.70;100726.22;5000119;28;20042;-82
2024/01/24 08:24:35;;;;;;;35.42;6.22;;;11.10;99.90;;;10.81;68.09;100718.81;5016685;28;20057;-82
2024/01/24 08:27:05;;;;;;;30.33;5.95;;;11.10;99.90;;;10.81;67.06;100704.66;5017624;28;20050;-82
2024/01/24 08:29:33;;;;;;;35.03;6.25;;;11.10;99.90;;;10.79;65.82;100709.38;4999699;28;20501;-82
2024/01/24 08:32:00;;;;;;;29.98;5.40;;;11.10;99.90;;;10.80;65.78;100700.34;4999984;28;20061;-82
2024/01/24 08:34:28;;;;;;;30.77;6.40;;;11.10;99.90;;;10.80;64.20;100717.19;5016580;28;20053;-82
2024/01/24 08:36:56;;;;;;;32.17;6.25;;;11.10;99.90;;;10.82;64.20;100730.28;5000777;28;20042;-82
2024/01/24 08:39:23;;;;;;;30.17;5.60;;;11.10;99.90;;;10.87;64.48;100719.81;4967705;28;20041;-82
2024/01/24 08:41:51;;;;;;;23.80;5.28;;;11.20;99.90;;;10.88;63.66;100736.66;5000240;28;20452;-82
2024/01/24 08:44:20;;;;;;;31.65;6.32;;;11.20;99.90;;;10.88;62.97;100731.31;5016758;28;20045;-82
2024/01/24 08:46:48;;;;;;;38.47;6.82;;;11.30;99.90;;;10.91;62.66;100734.41;5017598;28;20096;-82
2024/01/24 08:49:16;;;;;;;35.42;5.80;;;11.30;99.90;;;10.94;61.95;100743.84;5017418;28;20053;-81
2024/01/24 08:51:43;;;;;;;36.05;7.15;;;11.30;99.90;;;11.00;62.59;100721.66;4983024;28;20053;-81
2024/01/24 08:54:12;;;;;;;36.15;5.40;;;11.30;99.90;;;11.00;62.01;100737.69;5017743;28;20169;-86
2024/01/24 08:56:40;;;;;;;31.83;6.07;;;11.40;99.90;;;11.03;62.35;100751.44;4999657;28;20050;-86
2024/01/24 08:59:08;;;;;;;38.33;6.55;;;11.40;99.90;;;11.01;61.58;100745.47;5017285;28;20041;-86
2024/01/24 09:01:37;;;;;;;36.65;6.45;;;11.40;99.90;;;10.99;62.70;100766.22;4983173;28;20068;-87
2024/01/24 09:04:06;;;;;;;37.60;6.10;;;11.40;99.90;;;10.98;61.48;100793.09;4981223;28;20038;-88
2024/01/24 09:06:34;;;;;;;32.22;6.43;;;11.30;99.90;;;10.98;61.84;100783.25;5014736;28;20049;-89
2024/01/24 09:09:02;;;;;;;30.58;6.35;;;11.30;99.90;;;10.99;62.44;100789.41;4997610;28;20129;-88
2024/01/24 09:11:30;;;;;;;29.90;5.55;;;11.30;99.90;;;11.00;62.93;100801.72;4981305;28;20559;-89
2024/01/24 09:13:57;;;;;;;34.22;7.03;;;11.30;99.90;;;10.95;62.18;100781.00;4981015;28;20050;-88
2024/01/24 09:16:26;;;;;;;32.75;6.43;;;11.30;99.90;;;10.93;61.46;100793.75;5014441;28;20074;-87
2024/01/24 09:18:55;;;;;;;28.25;6.25;;;11.30;99.90;;;10.93;61.84;100795.56;4998429;28;20046;-86
2024/01/24 09:21:23;;;;;;;30.65;5.93;;;11.30;99.90;;;10.91;61.87;100789.63;5016758;28;20045;-86
2024/01/24 09:23:52;;;;;;;38.05;6.03;;;11.30;99.90;;;10.89;61.97;100786.34;5016976;28;20042;-85
2024/01/24 09:26:21;;;;;;;32.22;6.38;;;11.30;99.90;;;10.89;62.09;100792.50;4999559;28;20390;-85
2024/01/24 09:28:49;;;;;;;46.47;8.20;;;11.30;99.90;;;10.86;62.84;100811.56;4982985;28;20046;-81
2024/01/24 09:31:17;;;;;;;32.88;6.65;;;11.20;99.90;;;10.89;62.61;100826.38;4999055;28;20133;-82
2024/01/24 09:33:44;;;;;;;38.60;6.45;;;11.20;99.90;;;10.88;62.44;100830.84;5016443;28;20046;-82
2024/01/24 09:36:13;;;;;;;37.22;6.32;;;11.20;99.90;;;10.87;63.28;100845.22;4999090;28;20125;-82
2024/01/24 09:38:45;;;;;;;29.25;6.20;;;11.20;99.90;;;10.88;63.11;100824.69;4998978;28;20046;-82
2024/01/24 09:41:19;;;;;;;30.63;5.90;;;11.20;99.90;;;10.86;62.68;100826.75;5016994;28;20050;-81
2024/01/24 09:43:49;;;;;;;36.92;7.25;;;11.20;99.90;;;10.86;62.50;100829.44;5017104;28;20486;-82
2024/01/24 09:46:18;;;;;;;43.60;7.13;;;11.20;99.90;;;10.89;62.39;100832.53;4998843;28;20073;-81
2024/01/24 09:48:47;;;;;;;34.95;5.68;;;11.20;99.90;;;10.91;62.42;100824.31;4999098;28;20410;-81
2024/01/24 09:51:16;;;;;;;35.75;7.78;;;11.30;99.90;;;10.92;62.91;100856.13;5016970;28;20473;-83
2024/01/24 09:53:47;;;;;;;30.33;6.18;;;11.30;99.90;;;10.93;62.98;100848.94;4998868;28;20504;-81
2024/01/24 09:56:15;;;;;;;33.55;6.60;;;11.30;99.90;;;10.94;63.46;100859.41;5016922;28;20038;-81
2024/01/24 09:58:43;;;;;;;43.30;7.07;;;11.30;99.90;;;10.98;63.03;100860.66;5000338;28;20042;-81
2024/01/24 10:01:13;;;;;;;36.70;6.22;;;11.30;99.90;;;10.99;63.05;100878.31;5016349;28;20054;-81
2024/01/24 10:03:44;;;;;;;32.88;7.10;;;11.30;99.90;;;10.97;63.34;100874.19;4997929;28;20049;-81
2024/01/24 10:06:15;;;;;;;35.17;7.22;;;11.30;99.90;;;10.94;63.42;100887.97;4998839;28;20041;-81
2024/01/24 10:08:43;;;;;;;39.10;7.25;;;11.30;99.90;;;10.92;63.48;100911.34;5016091;28;20096;-81
2024/01/24 10:11:11;;;;;;;33.75;6.85;;;11.30;99.90;;;10.92;63.46;100901.47;4998473;28;20129;-81
2024/01/24 10:13:39;;;;;;;39.13;7.20;;;11.30;99.90;;;10.92;63.10;100896.16;5014397;28;20040;-81